SYX weather

Sanya Phoenix International Airport
Sanya, Hainan Province, China

Public forecast

Using degrees Celsius for public forecast. Weather courtesy of forecast.io.

Current aviation weather report (METAR) for Sanya Phoenix International Airport

Retrieved 2019/10/15 05:00 UTC (24 minutes ago):

ZJSY 150500Z 09008MPS 060V120 9999 SCT020 FEW026TCU 32/24 Q1015 NOSIG

Aviation forecast (TAF) for Sanya Phoenix International Airport

Retrieved 2019-10-15 00:03 UTC (5 hours ago):

TAF TAF ZJSY 141905Z 1500/1524 08004MPS 9999 FEW020 TX32/1506Z TN24/1521Z TEMPO 1504/1510 SHRA SCT016 FEW025CB